createdAt,value
2022-12-08T00:01:35.418Z,3.28
2022-12-08T00:04:05.065Z,2.05
2022-12-08T00:06:53.998Z,8.30
2022-12-08T00:09:25.197Z,7.18
2022-12-08T00:11:58.104Z,5.03
2022-12-08T00:14:28.522Z,0.77
2022-12-08T00:16:56.643Z,7.50
2022-12-08T00:19:25.400Z,8.80
2022-12-08T00:21:55.786Z,7.85
2022-12-08T00:24:25.468Z,2.35
2022-12-08T00:26:53.489Z,3.92
2022-12-08T00:29:21.960Z,6.60
2022-12-08T00:31:50.072Z,7.95
2022-12-08T00:34:18.464Z,6.38
2022-12-08T00:36:46.369Z,5.00
2022-12-08T00:39:17.560Z,5.35
2022-12-08T00:42:03.183Z,10.60
2022-12-08T00:44:31.364Z,3.95
2022-12-08T00:46:59.305Z,7.25
2022-12-08T00:49:27.256Z,4.93
2022-12-08T00:51:55.285Z,12.90
2022-12-08T00:54:25.055Z,9.77
2022-12-08T00:56:53.214Z,8.50
2022-12-08T00:59:21.178Z,6.22
2022-12-08T01:01:49.813Z,10.68
2022-12-08T01:04:20.570Z,6.60
2022-12-08T01:11:26.576Z,5.65
2022-12-08T01:13:55.479Z,5.15
2022-12-08T01:16:26.570Z,6.65
2022-12-08T01:18:55.349Z,7.00
2022-12-08T01:21:23.791Z,4.03
2022-12-08T01:23:51.827Z,5.63
2022-12-08T01:26:20.811Z,4.55
2022-12-08T01:28:50.707Z,5.88
2022-12-08T01:31:21.733Z,2.10
2022-12-08T01:33:50.463Z,5.28
2022-12-08T01:36:22.799Z,4.72
2022-12-08T01:38:51.805Z,3.88
2022-12-08T01:41:22.525Z,3.83
2022-12-08T01:43:58.101Z,3.92
2022-12-08T01:46:27.160Z,3.92
2022-12-08T01:49:01.880Z,6.53
2022-12-08T01:51:32.362Z,5.28
2022-12-08T01:54:00.585Z,2.30
2022-12-08T01:56:37.198Z,1.77
2022-12-08T01:59:08.064Z,3.20
2022-12-08T02:01:36.168Z,3.83
2022-12-08T02:04:05.486Z,2.35
2022-12-08T02:06:36.628Z,1.88
2022-12-08T02:09:06.577Z,0.38
2022-12-08T02:11:34.825Z,3.70
2022-12-08T02:14:08.324Z,5.88
2022-12-08T02:16:44.298Z,3.45
2022-12-08T02:19:35.960Z,2.97
2022-12-08T02:22:13.007Z,1.20
2022-12-08T02:24:48.049Z,2.55
2022-12-08T02:27:29.292Z,6.68
2022-12-08T02:30:19.860Z,1.55
2022-12-08T02:33:24.983Z,5.72
2022-12-08T02:36:00.944Z,3.28
2022-12-08T02:38:46.889Z,1.98
2022-12-08T02:41:24.524Z,3.97
2022-12-08T02:44:01.740Z,1.38
2022-12-08T02:46:35.503Z,1.73
2022-12-08T02:49:04.118Z,1.30
2022-12-08T02:51:33.436Z,2.30
2022-12-08T02:54:03.558Z,1.05
2022-12-08T02:56:58.706Z,7.25
2022-12-08T02:59:45.706Z,3.92
2022-12-08T03:02:34.936Z,3.55
2022-12-08T03:05:09.536Z,2.35
2022-12-08T03:07:46.745Z,5.00
2022-12-08T03:10:22.651Z,1.25
2022-12-08T03:12:53.393Z,2.67
2022-12-08T03:15:23.119Z,1.52
2022-12-08T03:17:55.420Z,4.68
2022-12-08T03:20:25.766Z,2.55
2022-12-08T03:22:59.538Z,1.50
2022-12-08T03:25:31.860Z,5.15
2022-12-08T03:28:00.780Z,0.63
2022-12-08T03:30:30.850Z,2.28
2022-12-08T03:33:03.966Z,1.70
2022-12-08T03:35:36.276Z,4.18
2022-12-08T03:38:07.580Z,2.88
2022-12-08T03:40:35.923Z,6.75
2022-12-08T03:43:04.877Z,3.03
2022-12-08T03:45:32.876Z,2.67
2022-12-08T03:48:01.490Z,5.50
2022-12-08T03:50:29.634Z,2.63
2022-12-08T03:52:57.667Z,1.73
2022-12-08T03:55:27.055Z,1.67
2022-12-08T03:57:54.928Z,1.75
2022-12-08T04:00:23.465Z,4.50
2022-12-08T04:02:51.716Z,2.88
2022-12-08T04:05:19.801Z,2.33
2022-12-08T04:07:48.419Z,2.92
2022-12-08T04:10:17.115Z,2.40
2022-12-08T04:12:47.705Z,0.77
2022-12-08T04:15:16.368Z,3.22
2022-12-08T04:17:45.336Z,2.95
2022-12-08T04:20:15.432Z,1.33
2022-12-08T04:22:44.286Z,0.63
2022-12-08T04:25:13.532Z,3.03
2022-12-08T04:27:43.001Z,2.83
2022-12-08T04:30:14.222Z,3.50
2022-12-08T04:32:47.373Z,5.25
2022-12-08T04:37:44.692Z,2.58
2022-12-08T04:44:55.850Z,3.78
2022-12-08T04:47:25.195Z,4.00
2022-12-08T04:49:53.325Z,3.50
2022-12-08T04:52:21.444Z,3.45
2022-12-08T04:54:49.408Z,2.72
2022-12-08T04:57:17.466Z,2.15
2022-12-08T04:59:45.526Z,4.60
2022-12-08T05:02:14.127Z,3.25
2022-12-08T05:04:43.600Z,1.77
2022-12-08T05:07:12.006Z,1.05
2022-12-08T05:09:40.015Z,3.45
2022-12-08T05:12:08.681Z,1.98
2022-12-08T05:14:36.605Z,4.55
2022-12-08T05:17:09.311Z,2.17
2022-12-08T05:19:37.792Z,4.65
2022-12-08T05:22:07.119Z,1.55
2022-12-08T05:24:35.216Z,5.95
2022-12-08T05:27:03.393Z,1.50
2022-12-08T05:29:31.599Z,1.60
2022-12-08T05:31:59.774Z,3.13
2022-12-08T05:34:27.967Z,4.07
2022-12-08T05:36:56.463Z,4.32
2022-12-08T05:39:26.024Z,7.95
2022-12-08T05:41:53.913Z,1.13
2022-12-08T05:44:21.936Z,2.20
2022-12-08T05:46:50.381Z,3.35
2022-12-08T05:49:19.268Z,2.10
2022-12-08T05:51:47.289Z,5.13
2022-12-08T05:54:15.260Z,2.90
2022-12-08T05:56:44.686Z,2.47
2022-12-08T05:59:12.997Z,4.28
2022-12-08T06:01:41.039Z,2.60
2022-12-08T06:04:09.974Z,2.58
2022-12-08T06:06:38.515Z,3.45
2022-12-08T06:09:07.327Z,2.83
2022-12-08T06:11:36.227Z,2.63
2022-12-08T06:14:05.595Z,4.60
2022-12-08T06:16:33.664Z,4.13
2022-12-08T06:19:01.781Z,2.65
2022-12-08T06:21:29.725Z,2.75
2022-12-08T06:23:57.685Z,1.77
2022-12-08T06:26:25.803Z,6.38
2022-12-08T06:28:53.827Z,2.10
2022-12-08T06:31:25.687Z,11.85
2022-12-08T06:33:55.038Z,1.65
2022-12-08T06:36:25.427Z,1.17
2022-12-08T06:38:53.826Z,1.98
2022-12-08T06:41:21.918Z,1.08
2022-12-08T06:43:50.011Z,3.80
2022-12-08T06:46:20.897Z,2.50
2022-12-08T06:48:50.816Z,9.68
2022-12-08T06:51:20.410Z,1.67
2022-12-08T06:53:48.714Z,1.83
2022-12-08T06:56:20.245Z,0.85
2022-12-08T06:58:52.560Z,1.45
2022-12-08T07:01:21.123Z,4.37
2022-12-08T07:03:50.448Z,2.50
2022-12-08T07:06:23.212Z,1.02
2022-12-08T07:08:51.810Z,5.70
2022-12-08T07:11:22.323Z,6.70
2022-12-08T07:13:50.707Z,2.97
2022-12-08T07:16:18.704Z,2.03
2022-12-08T07:18:46.739Z,2.20
2022-12-08T07:21:16.345Z,4.65
2022-12-08T07:23:50.182Z,7.85
2022-12-08T07:26:22.240Z,0.55
2022-12-08T07:28:50.187Z,3.13
2022-12-08T07:31:19.984Z,2.08
2022-12-08T07:33:48.245Z,3.58
2022-12-08T07:36:17.916Z,2.70
2022-12-08T07:38:46.099Z,1.10
2022-12-08T07:41:14.671Z,2.10
2022-12-08T07:43:43.320Z,4.15
2022-12-08T07:46:13.988Z,6.70
2022-12-08T07:48:42.437Z,3.20
2022-12-08T07:51:12.830Z,6.82
2022-12-08T07:53:44.528Z,1.13
2022-12-08T07:56:15.005Z,4.82
2022-12-08T07:58:45.811Z,3.53
2022-12-08T08:01:26.132Z,8.35
2022-12-08T08:03:55.102Z,7.07
2022-12-08T08:06:23.664Z,4.88
2022-12-08T08:08:53.170Z,6.38
2022-12-08T08:11:21.799Z,11.20
2022-12-08T08:13:49.931Z,11.43
2022-12-08T08:16:19.079Z,3.95
2022-12-08T08:18:48.806Z,5.57
2022-12-08T08:21:43.894Z,4.63
2022-12-08T08:24:06.788Z,6.13
2022-12-08T08:26:34.731Z,7.40
2022-12-08T08:29:02.698Z,4.75
2022-12-08T08:31:30.720Z,8.18
2022-12-08T08:34:00.637Z,7.40
2022-12-08T08:36:28.618Z,4.43
2022-12-08T08:38:56.547Z,2.83
2022-12-08T08:41:25.786Z,9.85
2022-12-08T08:43:55.391Z,7.93
2022-12-08T08:46:23.778Z,4.32
2022-12-08T08:48:51.788Z,7.03
2022-12-08T08:51:19.720Z,2.85
2022-12-08T08:53:47.624Z,3.70
2022-12-08T08:56:19.319Z,5.70
2022-12-08T08:58:50.404Z,4.80
2022-12-08T09:01:20.719Z,10.68
2022-12-08T09:03:49.527Z,7.93
2022-12-08T09:06:18.290Z,3.08
2022-12-08T09:08:46.917Z,4.70
2022-12-08T09:11:16.815Z,4.40
2022-12-08T09:13:44.679Z,2.03
2022-12-08T09:16:14.386Z,6.68
2022-12-08T09:18:42.951Z,15.65
2022-12-08T09:21:15.103Z,7.63
2022-12-08T09:23:43.320Z,6.32
2022-12-08T09:26:11.807Z,10.27
2022-12-08T09:28:39.770Z,7.72
2022-12-08T09:31:07.745Z,5.80
2022-12-08T09:33:37.025Z,10.15
2022-12-08T09:36:05.787Z,3.45
2022-12-08T09:38:33.906Z,8.65
2022-12-08T09:41:05.270Z,7.88
2022-12-08T09:43:53.262Z,10.82
2022-12-08T09:46:22.506Z,13.38
2022-12-08T09:48:56.043Z,2.85
2022-12-08T09:51:25.978Z,10.50
2022-12-08T09:53:57.821Z,8.43
2022-12-08T09:56:29.992Z,4.43
2022-12-08T09:59:01.611Z,5.57
2022-12-08T10:01:31.830Z,4.63
2022-12-08T10:04:02.240Z,4.55
2022-12-08T10:06:34.601Z,7.57
2022-12-08T10:09:12.564Z,3.65
2022-12-08T10:11:51.315Z,6.13
2022-12-08T10:14:28.148Z,4.38
2022-12-08T10:17:02.326Z,5.50
2022-12-08T10:19:35.326Z,3.92
2022-12-08T10:22:13.319Z,2.58
2022-12-08T10:24:49.176Z,7.72
2022-12-08T10:27:17.052Z,9.00
2022-12-08T10:29:45.278Z,7.10
2022-12-08T10:32:18.683Z,3.72
2022-12-08T10:35:07.551Z,5.57
2022-12-08T10:37:35.554Z,5.95
2022-12-08T10:40:10.965Z,8.90
2022-12-08T10:42:42.235Z,10.18
2022-12-08T10:45:23.446Z,4.95
2022-12-08T10:47:59.775Z,5.57
2022-12-08T10:50:37.014Z,9.85
2022-12-08T10:53:14.047Z,9.32
2022-12-08T10:55:45.282Z,8.75
2022-12-08T10:58:27.673Z,7.68
2022-12-08T11:00:57.497Z,1.35
2022-12-08T11:03:29.753Z,6.72
2022-12-08T11:06:07.127Z,2.83
2022-12-08T11:08:48.187Z,4.90
2022-12-08T11:11:17.065Z,2.78
2022-12-08T11:13:45.107Z,4.15
2022-12-08T11:16:16.499Z,3.50
2022-12-08T11:18:46.950Z,5.47
2022-12-08T11:21:18.979Z,1.40
2022-12-08T11:23:49.632Z,4.28
2022-12-08T11:26:27.231Z,1.50
2022-12-08T11:28:55.476Z,2.95
2022-12-08T11:31:30.095Z,2.28
2022-12-08T11:33:58.145Z,1.30
2022-12-08T11:36:31.610Z,5.30
2022-12-08T11:41:35.332Z,1.73
2022-12-08T11:44:12.956Z,1.23
2022-12-08T11:46:46.395Z,2.17
2022-12-08T11:51:51.010Z,1.27
2022-12-08T11:54:24.804Z,1.65
2022-12-08T11:56:55.623Z,1.75
2022-12-08T11:59:29.764Z,1.13
2022-12-08T12:01:59.223Z,3.50
2022-12-08T12:04:33.163Z,1.95
2022-12-08T12:07:26.012Z,0.13
2022-12-08T12:10:18.579Z,1.15
2022-12-08T12:13:00.353Z,4.40
2022-12-08T12:16:19.074Z,0.90
2022-12-08T12:18:50.624Z,3.35
2022-12-08T12:21:23.358Z,2.28
2022-12-08T12:23:57.236Z,5.90
2022-12-08T12:26:27.182Z,1.85
2022-12-08T12:28:59.003Z,1.75
2022-12-08T12:31:31.629Z,2.08
2022-12-08T12:34:08.463Z,1.88
2022-12-08T12:36:52.612Z,1.90
2022-12-08T12:39:26.171Z,4.10
2022-12-08T12:44:39.111Z,2.20
2022-12-08T12:50:07.398Z,2.05
2022-12-08T12:52:54.607Z,7.53
2022-12-08T12:55:46.471Z,3.42
2022-12-08T12:58:37.571Z,3.28
2022-12-08T13:01:46.888Z,2.63
2022-12-08T13:04:16.302Z,1.52
2022-12-08T13:06:48.172Z,1.25
2022-12-08T13:09:25.039Z,0.57
2022-12-08T13:11:57.946Z,0.38
2022-12-08T13:14:32.347Z,0.10
2022-12-08T13:17:02.450Z,2.05
2022-12-08T13:19:35.242Z,1.30
2022-12-08T13:22:03.794Z,2.67
2022-12-08T13:24:35.929Z,3.47
2022-12-08T13:27:36.014Z,1.27
2022-12-08T13:30:42.257Z,3.22
2022-12-08T13:33:19.591Z,1.10
2022-12-08T13:36:11.692Z,7.78
2022-12-08T13:38:40.694Z,1.42
2022-12-08T13:41:19.848Z,4.10
2022-12-08T13:44:50.379Z,3.25
2022-12-08T13:56:51.541Z,2.55
2022-12-08T13:58:25.534Z,3.95
2022-12-08T14:01:05.709Z,2.03
2022-12-08T14:03:45.139Z,1.02
2022-12-08T14:06:30.448Z,1.63
2022-12-08T14:09:09.965Z,1.73
2022-12-08T14:11:41.773Z,0.47
2022-12-08T14:14:27.257Z,1.92
2022-12-08T14:17:06.917Z,3.92
2022-12-08T14:19:36.187Z,0.98
2022-12-08T14:22:11.899Z,5.55
2022-12-08T14:24:40.511Z,2.60
2022-12-08T14:27:10.321Z,5.68
2022-12-08T14:29:41.826Z,2.55
2022-12-08T14:32:30.126Z,2.95
2022-12-08T14:35:04.025Z,7.32
2022-12-08T14:37:34.226Z,2.25
2022-12-08T14:40:05.861Z,4.32
2022-12-08T14:42:43.865Z,4.22
2022-12-08T14:45:15.121Z,3.80
2022-12-08T14:47:45.653Z,1.50
2022-12-08T14:50:40.292Z,4.18
2022-12-08T14:53:14.918Z,5.20
2022-12-08T14:55:46.047Z,1.52
2022-12-08T14:58:20.283Z,3.35
2022-12-08T15:00:51.547Z,6.10
2022-12-08T15:03:23.705Z,7.07
2022-12-08T15:05:53.552Z,10.15
2022-12-08T15:08:21.759Z,5.95
2022-12-08T15:11:14.731Z,4.70
2022-12-08T15:13:46.410Z,6.28
2022-12-08T15:16:27.423Z,1.85
2022-12-08T15:19:23.252Z,2.75
2022-12-08T15:21:52.377Z,2.58
2022-12-08T15:24:23.377Z,3.20
2022-12-08T15:26:53.059Z,3.45
2022-12-08T15:29:24.106Z,2.17
2022-12-08T15:31:53.555Z,4.43
2022-12-08T15:34:23.660Z,8.50
2022-12-08T15:36:53.859Z,3.50
2022-12-08T15:39:31.190Z,2.20
2022-12-08T15:41:59.715Z,2.78
2022-12-08T15:44:29.184Z,2.50
2022-12-08T15:46:57.471Z,9.48
2022-12-08T15:49:27.008Z,2.65
2022-12-08T15:52:08.086Z,4.45
2022-12-08T15:54:38.893Z,7.38
2022-12-08T15:57:44.167Z,3.15
2022-12-08T15:59:54.920Z,5.60
2022-12-08T16:02:25.156Z,5.63
2022-12-08T16:07:43.109Z,6.57
2022-12-08T16:10:17.418Z,8.73
2022-12-08T16:15:59.649Z,4.65
2022-12-08T16:18:31.327Z,4.63
2022-12-08T16:21:45.558Z,10.38
2022-12-08T16:23:49.683Z,5.05
2022-12-08T16:27:01.196Z,7.60
2022-12-08T16:29:09.039Z,7.05
2022-12-08T16:31:36.950Z,3.83
2022-12-08T16:34:04.972Z,7.22
2022-12-08T16:36:34.210Z,7.13
2022-12-08T16:39:02.642Z,4.53
2022-12-08T16:41:48.204Z,5.45
2022-12-08T16:44:16.209Z,5.25
2022-12-08T16:46:44.337Z,7.15
2022-12-08T16:49:12.550Z,9.75
2022-12-08T16:51:43.393Z,9.55
2022-12-08T16:54:12.024Z,8.52
2022-12-08T16:56:40.175Z,10.50
2022-12-08T16:59:08.012Z,10.10
2022-12-08T17:01:35.985Z,11.32
2022-12-08T17:04:30.551Z,13.00
2022-12-08T17:06:53.858Z,9.45
2022-12-08T17:09:21.717Z,8.85
2022-12-08T17:11:50.376Z,11.50
2022-12-08T17:14:18.566Z,10.20
2022-12-08T17:16:46.856Z,12.07
2022-12-08T17:19:15.786Z,14.55
2022-12-08T17:21:45.532Z,15.75
2022-12-08T17:24:20.217Z,17.00
2022-12-08T17:26:49.907Z,15.50
2022-12-08T17:29:18.758Z,13.00
2022-12-08T17:31:46.833Z,17.35
2022-12-08T17:34:15.027Z,15.75
2022-12-08T17:36:43.207Z,14.70
2022-12-08T17:39:17.840Z,13.65
2022-12-08T17:41:48.206Z,14.07
2022-12-08T17:44:18.567Z,15.80
2022-12-08T17:46:52.499Z,15.95
2022-12-08T17:49:23.508Z,13.57
2022-12-08T17:51:53.005Z,22.92
2022-12-08T17:54:21.903Z,19.77
2022-12-08T17:56:51.562Z,20.35
2022-12-08T17:59:19.983Z,22.80
2022-12-08T18:01:48.257Z,16.13
2022-12-08T18:04:16.365Z,17.58
2022-12-08T18:06:44.386Z,16.27
2022-12-08T18:09:12.389Z,16.45
2022-12-08T18:11:40.570Z,28.10
2022-12-08T18:14:11.113Z,43.20
2022-12-08T18:16:41.034Z,31.05
2022-12-08T18:19:09.743Z,34.35
2022-12-08T18:21:38.393Z,26.67
2022-12-08T18:24:07.236Z,22.20
2022-12-08T18:26:35.281Z,23.48
2022-12-08T18:29:03.891Z,18.35
2022-12-08T18:31:33.201Z,16.20
2022-12-08T18:34:01.203Z,26.42
2022-12-08T18:36:29.382Z,19.25
2022-12-08T18:38:57.264Z,12.25
2022-12-08T18:41:26.741Z,15.90
2022-12-08T18:43:57.043Z,18.83
2022-12-08T18:46:26.370Z,15.02
2022-12-08T18:48:55.796Z,13.02
2022-12-08T18:51:25.264Z,14.95
2022-12-08T18:53:54.029Z,23.65
2022-12-08T18:56:24.555Z,15.25
2022-12-08T18:58:52.687Z,12.95
2022-12-08T19:01:21.105Z,14.27
2022-12-08T19:06:40.287Z,10.45
2022-12-08T19:09:08.765Z,16.05
2022-12-08T19:11:36.734Z,12.93
2022-12-08T19:14:05.005Z,12.60
2022-12-08T19:16:32.990Z,15.68
2022-12-08T19:19:01.025Z,10.60
2022-12-08T19:21:29.044Z,13.27
2022-12-08T19:23:58.600Z,11.23
2022-12-08T19:26:28.151Z,9.60
2022-12-08T19:28:56.140Z,17.17
2022-12-08T19:31:24.143Z,14.93
2022-12-08T19:33:52.388Z,18.00
2022-12-08T19:36:22.616Z,10.88
2022-12-08T19:39:09.196Z,13.43
2022-12-08T19:41:55.551Z,14.55
2022-12-08T19:44:43.495Z,12.80
2022-12-08T19:47:11.541Z,13.65
2022-12-08T19:49:39.731Z,15.52
2022-12-08T19:52:07.873Z,15.68
2022-12-08T19:54:36.133Z,15.40
2022-12-08T19:57:05.638Z,13.35
2022-12-08T19:59:33.571Z,12.57
2022-12-08T20:02:01.538Z,13.88
2022-12-08T20:04:29.734Z,14.63
2022-12-08T20:06:58.163Z,18.02
2022-12-08T20:09:26.515Z,13.07
2022-12-08T20:11:55.147Z,19.15
2022-12-08T20:14:25.311Z,20.23
2022-12-08T20:16:53.449Z,20.08
2022-12-08T20:19:21.475Z,20.98
2022-12-08T20:21:49.548Z,19.38
2022-12-08T20:24:17.923Z,25.15
2022-12-08T20:26:46.264Z,21.75
2022-12-08T20:29:16.859Z,23.20
2022-12-08T20:31:46.689Z,15.70
2022-12-08T20:34:16.288Z,16.10
2022-12-08T20:36:44.597Z,20.58
2022-12-08T20:39:13.697Z,16.95
2022-12-08T20:41:41.728Z,22.25
2022-12-08T20:44:09.933Z,23.08
2022-12-08T20:46:38.034Z,27.10
2022-12-08T20:49:07.456Z,24.02
2022-12-08T20:51:35.840Z,22.30
2022-12-08T20:54:04.726Z,22.55
2022-12-08T20:56:33.255Z,22.08
2022-12-08T20:59:01.325Z,17.25
2022-12-08T21:01:29.469Z,20.42
2022-12-08T21:03:57.695Z,19.55
2022-12-08T21:06:28.133Z,19.30
2022-12-08T21:08:56.178Z,21.65
2022-12-08T21:11:24.440Z,18.92
2022-12-08T21:13:52.779Z,25.55
2022-12-08T21:16:20.832Z,26.88
2022-12-08T21:18:48.995Z,40.20
2022-12-08T21:21:17.947Z,24.27
2022-12-08T21:23:47.556Z,17.77
2022-12-08T21:26:18.452Z,22.30
2022-12-08T21:28:47.663Z,18.63
2022-12-08T21:31:18.512Z,20.17
2022-12-08T21:33:47.033Z,16.15
2022-12-08T21:36:18.694Z,18.90
2022-12-08T21:38:48.697Z,16.13
2022-12-08T21:41:39.750Z,14.75
2022-12-08T21:44:09.564Z,22.40
2022-12-08T21:46:37.793Z,21.90
2022-12-08T21:49:06.377Z,19.35
2022-12-08T21:51:37.766Z,17.48
2022-12-08T21:54:07.326Z,17.25
2022-12-08T21:56:35.526Z,20.25
2022-12-08T21:59:03.544Z,15.13
2022-12-08T22:01:31.615Z,21.25
2022-12-08T22:04:00.015Z,24.73
2022-12-08T22:06:28.441Z,20.13
2022-12-08T22:08:57.646Z,19.45
2022-12-08T22:11:27.683Z,24.85
2022-12-08T22:13:56.081Z,16.80
2022-12-08T22:16:24.170Z,19.48
2022-12-08T22:18:52.569Z,16.50
2022-12-08T22:21:20.685Z,17.00
2022-12-08T22:23:48.620Z,18.10
2022-12-08T22:26:16.670Z,27.02
2022-12-08T22:28:46.082Z,20.30
2022-12-08T22:31:16.224Z,16.13
2022-12-08T22:33:44.794Z,20.45
2022-12-08T22:36:17.409Z,17.40
2022-12-08T22:38:45.914Z,18.95
2022-12-08T22:41:14.372Z,21.90
2022-12-08T22:43:42.961Z,17.02
2022-12-08T22:46:16.707Z,17.88
2022-12-08T22:48:44.716Z,20.17
2022-12-08T22:51:12.979Z,20.48
2022-12-08T22:53:41.357Z,21.38
2022-12-08T22:56:12.682Z,27.50
2022-12-08T22:58:41.984Z,25.40
2022-12-08T23:01:20.694Z,23.38
2022-12-08T23:03:50.229Z,25.13
2022-12-08T23:06:18.522Z,26.15
2022-12-08T23:08:47.238Z,29.50
2022-12-08T23:11:15.975Z,26.27
2022-12-08T23:13:44.311Z,22.65
2022-12-08T23:16:13.821Z,28.17
2022-12-08T23:18:43.674Z,30.83
2022-12-08T23:21:16.720Z,26.80
2022-12-08T23:23:45.121Z,25.08
2022-12-08T23:26:23.351Z,26.85
2022-12-08T23:28:51.877Z,27.42
2022-12-08T23:31:21.506Z,30.67
2022-12-08T23:33:50.024Z,25.00
2022-12-08T23:36:21.095Z,30.98
2022-12-08T23:38:49.530Z,23.38
2022-12-08T23:41:17.817Z,27.27
2022-12-08T23:43:46.719Z,31.25
2022-12-08T23:46:15.245Z,26.92
2022-12-08T23:48:43.351Z,37.10
2022-12-08T23:51:12.580Z,32.88
2022-12-08T23:53:42.262Z,27.13
2022-12-08T23:56:12.258Z,32.58
2022-12-08T23:58:40.627Z,35.42
